ジッダ の空港の天気 - METARとTAF

キング・アブドゥルアズィーズ国際空港(ジッダ) ( OEJN / JED ) - サウジアラビア ジッダ
飛行場実況気象(Metar)
観測時間06/21 07:00 AST (06/21 04:00 UTC)
風向・風速西北西 5m/s
視程10km以上
天気現象
少しの雲 雲底高度 1220m
気温32℃
湿度56%
気圧1003hPa
METAROEJN 210400Z 30010KT 9999 FEW040 32/22 Q1003 NOSIG
過去の天気等 Google飛行場航空写真 Wunderground天気予報

過去48時間のMETAR

飛行場予報(TAF)
発表時間: 6/21 02:00 AST (6/20 23:00 UTC)
予報対象時間: 21日3時 AST ~ 22日9時 AST
風向・風速不定 2m/s
視程7000m
全天の4割程度の雲 雲底高度 1220m
21日9時 AST ~ 21日11時 AST に徐々に
風向・風速北西 5m/s 瞬間風速 10m/s
視程10km以上
少しの雲 雲底高度 1220m
TAF OEJN 202300Z 2100/2206 VRB03KT 7000 SCT040
BECMG 2106/2108 32010G20KT 9999 FEW040